Main page
METAR-TAF:

METAR-TAF

Airports :

Shanghai-Pudong, China

Shanghai Pudong International Airport

latitude: 31-07N, longitude: 121-46E, elevation: 4 m

Current weather observation

The report was made 24 minutes ago, at 10:00 UTC
Wind 6 kt from the Southeast
Temperature 24°C
Humidity 57%
Pressure 1012 hPa
Visibility 10 km or more
no clouds below 1500 m and no cumulonimbus

METAR: ZSPD 281000Z 13003MPS CAVOK 24/15 Q1012 NOSIG

Time: 18:24 (10:24 UTC)

Forecast

The report was made 6 hours and 56 minutes ago, at 03:28 UTC
Forecast valid from 28 at 06 UTC to 29 at 06 UTC
Wind 8 kt from the South/Southeast
Visibility: 6000 m
Scattered clouds at a height of 2000 ft

TAF: ZSPD 280328Z 2806/2906 16004MPS 6000 SCT020 TX31/2806Z TN19/2821Z

Weather observations and forecasts of more than 4000 airports (METAR and TAF reports).

The available stations are represented by yellow and red dots on the map.

Hover mouse over dot to see the name of the station.

Then click to see weather observations and forecasts.

To change the map : click on the green buttons with a black cross to zoom in, on the green button with a dash to zoom out, or on the green arrows for adjacent maps.


METAR-TAF: